Time;durP1;ratioP1;P1;durP2;ratioP2;P2;SDS_P1;SDS_P2;PMS_P1;PMS_P2;Temp;Humidity;BMP_temperature;BMP_pressure;BME280_temperature;BME280_humidity;BME280_pressure;Samples;Min_cycle;Max_cycle;Signal;HPM_P1;HPM_P2
2023/07/17 00:00:22;;;;;;;18.77;17.13;;;;;;;24.32;52.00;100218.69;4822610;29;98990;-73
2023/07/17 00:02:47;;;;;;;20.23;18.73;;;;;;;24.31;51.86;100233.06;4819660;29;98401;-73
2023/07/17 00:05:13;;;;;;;19.13;17.83;;;;;;;24.28;52.10;100233.34;4835084;29;96994;-73
2023/07/17 00:07:39;;;;;;;18.90;17.70;;;;;;;24.01;52.99;100236.75;4835427;29;96959;-73
2023/07/17 00:10:07;;;;;;;18.73;17.42;;;;;;;23.48;52.94;100239.75;4821589;29;99293;-73
2023/07/17 00:12:32;;;;;;;18.55;17.35;;;;;;;23.25;53.37;100239.97;4838167;29;98792;-73
2023/07/17 00:14:58;;;;;;;19.80;18.40;;;;;;;23.37;53.15;100238.03;4831070;29;96745;-73
2023/07/17 00:17:24;;;;;;;19.08;17.52;;;;;;;23.58;53.01;100242.44;4821472;29;96870;-73
2023/07/17 00:19:54;;;;;;;18.67;17.38;;;;;;;23.56;52.76;100247.97;4824244;29;98465;-73
2023/07/17 00:22:21;;;;;;;19.75;18.45;;;;;;;23.50;52.58;100227.94;4826440;29;98442;-73
2023/07/17 00:24:46;;;;;;;19.13;17.83;;;;;;;23.70;52.27;100219.94;4821514;29;97145;-73
2023/07/17 00:27:12;;;;;;;20.23;18.65;;;;;;;23.76;52.17;100208.66;4822120;29;97100;-73
2023/07/17 00:29:40;;;;;;;18.92;17.63;;;;;;;23.69;52.11;100215.53;4821550;29;98736;-73
2023/07/17 00:32:06;;;;;;;19.30;18.00;;;;;;;23.74;52.34;100218.69;4820119;29;98572;-73
2023/07/17 00:34:32;;;;;;;19.63;18.23;;;;;;;23.85;52.48;100218.56;4822458;29;96863;-73
2023/07/17 00:36:58;;;;;;;19.95;18.60;;;;;;;23.94;53.12;100222.25;4832085;29;96909;-73
2023/07/17 00:39:24;;;;;;;19.48;17.98;;;;;;;23.80;53.94;100233.38;4804815;29;100677;-73
2023/07/17 00:41:50;;;;;;;18.63;17.30;;;;;;;23.52;54.22;100246.53;4810347;29;99514;-73
2023/07/17 00:44:17;;;;;;;18.60;17.30;;;;;;;23.62;53.92;100249.22;4840513;29;96656;-73
2023/07/17 00:46:43;;;;;;;18.85;17.60;;;;;;;23.72;54.01;100242.09;4839657;29;96898;-73
2023/07/17 00:49:10;;;;;;;19.83;18.40;;;;;;;23.79;54.57;100239.69;4820193;29;97494;-73
2023/07/17 00:51:38;;;;;;;19.10;17.80;;;;;;;23.83;54.92;100246.50;4804187;29;98874;-73
2023/07/17 00:54:05;;;;;;;19.23;17.88;;;;;;;23.82;54.87;100239.41;4804283;29;96713;-73
2023/07/17 00:56:31;;;;;;;19.83;18.00;;;;;;;23.82;54.80;100248.28;4803230;29;97178;-73
2023/07/17 00:58:57;;;;;;;19.50;18.20;;;;;;;23.43;55.56;100250.03;4799222;29;98603;-73
2023/07/17 01:01:23;;;;;;;18.67;17.25;;;;;;;23.23;56.03;100243.75;4810418;29;98471;-73
2023/07/17 01:03:50;;;;;;;17.95;16.85;;;;;;;23.36;55.33;100238.16;4822502;29;96946;-73
2023/07/17 01:06:18;;;;;;;18.92;17.42;;;;;;;23.49;55.20;100255.69;4796988;29;96895;-73
2023/07/17 01:08:43;;;;;;;19.02;17.77;;;;;;;23.37;55.48;100263.97;4837649;29;98867;-73
2023/07/17 01:11:09;;;;;;;18.95;17.55;;;;;;;23.34;55.61;100258.88;4821195;29;99131;-73
2023/07/17 01:13:45;;;;;;;18.27;16.88;;;;;;;23.52;55.33;100267.97;4817084;29;97433;-73
2023/07/17 01:16:11;;;;;;;18.17;16.77;;;;;;;23.61;54.99;100274.31;4812976;29;96869;-73
2023/07/17 01:18:36;;;;;;;18.77;17.35;;;;;;;23.39;56.52;100268.22;4811247;29;98774;-73
2023/07/17 01:21:03;;;;;;;19.48;18.08;;;;;;;23.43;56.34;100253.56;4792340;29;100438;-73
2023/07/17 01:23:28;;;;;;;19.50;17.88;;;;;;;23.57;56.54;100248.81;4803224;29;96785;-73
2023/07/17 01:25:54;;;;;;;18.65;17.35;;;;;;;23.56;57.78;100261.34;4828905;29;96838;-73
2023/07/17 01:28:20;;;;;;;18.67;17.17;;;;;;;23.39;59.05;100262.00;4802339;29;97509;-73
2023/07/17 01:30:47;;;;;;;19.00;17.70;;;;;;;23.50;58.81;100253.84;4802276;29;100282;-73
2023/07/17 01:33:12;;;;;;;18.67;17.48;;;;;;;23.57;58.27;100256.84;4811803;29;97325;-73
2023/07/17 01:35:38;;;;;;;19.70;18.30;;;;;;;23.60;58.60;100251.22;4805115;29;96950;-73
2023/07/17 01:38:05;;;;;;;18.77;17.48;;;;;;;23.59;59.12;100246.81;4825055;29;97417;-73
2023/07/17 01:40:30;;;;;;;18.67;17.35;;;;;;;23.58;59.55;100255.84;4813735;29;98268;-73
2023/07/17 01:42:58;;;;;;;18.35;17.15;;;;;;;23.60;59.59;100259.25;4827857;29;97340;-73
2023/07/17 01:45:23;;;;;;;19.23;17.52;;;;;;;23.54;59.44;100262.47;4813057;29;96906;-73
2023/07/17 01:47:49;;;;;;;19.48;17.75;;;;;;;23.36;59.96;100265.81;4819966;29;99019;-73
2023/07/17 01:50:15;;;;;;;18.17;16.98;;;;;;;23.13;60.60;100275.88;4815994;29;100619;-73
2023/07/17 01:52:40;;;;;;;18.10;16.90;;;;;;;23.27;61.03;100290.69;4802435;29;96869;-73
2023/07/17 01:55:06;;;;;;;19.20;17.70;;;;;;;23.20;61.47;100308.28;4805869;29;97088;-73
2023/07/17 01:57:32;;;;;;;18.52;17.20;;;;;;;23.19;61.26;100317.31;4829276;29;98811;-73
2023/07/17 01:59:59;;;;;;;19.88;18.23;;;;;;;22.87;62.00;100320.91;4788427;29;100590;-73
2023/07/17 02:02:25;;;;;;;19.50;17.98;;;;;;;22.86;61.95;100313.00;4809547;29;96771;-73
2023/07/17 02:04:51;;;;;;;19.17;17.77;;;;;;;23.00;61.60;100310.84;4807847;29;97030;-73
2023/07/17 02:07:16;;;;;;;18.80;17.60;;;;;;;23.15;61.22;100306.00;4795047;29;100998;-73
2023/07/17 02:09:42;;;;;;;19.25;17.88;;;;;;;23.18;61.29;100303.06;4816700;29;98238;-73
2023/07/17 02:12:08;;;;;;;19.55;17.92;;;;;;;23.12;61.17;100306.28;4827023;29;96911;-73
2023/07/17 02:14:34;;;;;;;19.88;18.27;;;;;;;22.90;61.86;100312.63;4820503;29;96855;-73
2023/07/17 02:17:00;;;;;;;19.42;17.80;;;;;;;23.03;61.79;100329.31;4806721;29;100526;-73
2023/07/17 02:19:25;;;;;;;19.13;17.70;;;;;;;23.17;61.47;100332.66;4792461;29;100182;-73
2023/07/17 02:21:52;;;;;;;19.17;17.88;;;;;;;23.22;61.33;100325.94;4790462;29;96944;-73
2023/07/17 02:24:20;;;;;;;19.35;17.95;;;;;;;23.30;61.05;100340.47;4800190;29;97195;-73
2023/07/17 02:26:45;;;;;;;18.95;17.55;;;;;;;23.35;60.82;100344.44;4790413;29;98932;-73
2023/07/17 02:29:11;;;;;;;19.10;17.60;;;;;;;23.35;60.48;100343.59;4783408;29;98970;-73
2023/07/17 02:31:36;;;;;;;19.25;17.90;;;;;;;23.34;60.56;100344.59;4790762;29;97126;-72
2023/07/17 02:34:03;;;;;;;19.90;18.25;;;;;;;23.39;60.44;100345.03;4786862;29;96927;-73
2023/07/17 02:36:29;;;;;;;19.38;17.88;;;;;;;23.42;60.08;100342.94;4796894;29;97562;-72
2023/07/17 02:38:54;;;;;;;19.08;17.38;;;;;;;23.41;60.23;100341.22;4806832;29;98809;-73
2023/07/17 02:41:20;;;;;;;18.75;17.38;;;;;;;23.45;59.93;100356.06;4782903;29;96885;-73
2023/07/17 02:43:45;;;;;;;19.30;17.92;;;;;;;23.48;59.76;100362.97;4782941;29;96964;-73
2023/07/17 02:46:11;;;;;;;19.40;18.00;;;;;;;23.50;59.78;100367.22;4789398;29;98703;-73
2023/07/17 02:48:36;;;;;;;18.52;17.05;;;;;;;23.50;59.76;100363.66;4801506;29;98341;-73
2023/07/17 02:51:03;;;;;;;18.92;17.52;;;;;;;23.47;59.62;100372.84;4794516;29;97284;-73
2023/07/17 02:53:28;;;;;;;19.40;17.92;;;;;;;23.45;59.32;100368.59;4788956;29;97198;-73
2023/07/17 02:55:54;;;;;;;19.00;17.40;;;;;;;23.38;59.56;100370.94;4827205;29;100560;-73
2023/07/17 02:58:20;;;;;;;19.67;17.92;;;;;;;23.21;60.28;100375.13;4800525;29;98850;-73
2023/07/17 03:00:46;;;;;;;19.95;18.10;;;;;;;23.02;61.34;100380.34;4799632;29;96852;-73
2023/07/17 03:03:11;;;;;;;20.13;18.48;;;;;;;22.68;63.31;100372.44;4815976;29;97393;-73
2023/07/17 03:05:37;;;;;;;22.52;20.45;;;;;;;22.50;63.89;100374.84;4818019;29;97806;-73
2023/07/17 03:08:03;;;;;;;19.83;18.30;;;;;;;22.62;63.82;100380.97;4805203;29;98303;-73
2023/07/17 03:10:29;;;;;;;19.77;18.20;;;;;;;22.44;64.74;100370.00;4798980;29;97030;-73
2023/07/17 03:12:56;;;;;;;19.38;18.05;;;;;;;22.26;65.17;100358.16;4799249;29;96989;-73
2023/07/17 03:15:22;;;;;;;18.67;17.25;;;;;;;22.25;65.53;100349.28;4799554;29;100450;-73
2023/07/17 03:17:47;;;;;;;19.73;17.67;;;;;;;22.05;66.18;100355.38;4783779;29;98238;-73
2023/07/17 03:20:13;;;;;;;19.27;17.70;;;;;;;22.07;66.12;100338.22;4782647;29;96786;-73
2023/07/17 03:22:39;;;;;;;19.63;18.25;;;;;;;22.07;66.22;100337.38;4793160;29;96942;-73
2023/07/17 03:25:06;;;;;;;19.95;18.08;;;;;;;22.15;65.92;100324.25;4796680;29;98988;-72
2023/07/17 03:27:31;;;;;;;19.00;17.58;;;;;;;21.83;66.89;100330.41;4818401;29;98385;-73
2023/07/17 03:29:57;;;;;;;19.02;17.30;;;;;;;21.72;67.34;100319.72;4786991;29;96817;-73
2023/07/17 03:32:23;;;;;;;19.63;18.02;;;;;;;21.88;66.63;100304.16;4799466;29;97841;-73
2023/07/17 03:34:49;;;;;;;18.95;17.58;;;;;;;21.95;66.19;100309.00;4799238;29;100795;-72
2023/07/17 03:37:14;;;;;;;19.48;17.90;;;;;;;21.86;66.62;100314.13;4809686;29;98296;-73
2023/07/17 03:39:40;;;;;;;18.10;16.70;;;;;;;22.03;65.95;100307.41;4814135;29;96902;-73
2023/07/17 03:42:10;;;;;;;18.75;17.35;;;;;;;22.24;65.18;100314.66;4797715;29;96829;-72
2023/07/17 03:44:37;;;;;;;18.30;16.75;;;;;;;22.20;65.76;100321.25;4789076;29;100577;-73
2023/07/17 03:47:03;;;;;;;18.67;16.90;;;;;;;22.03;66.04;100303.88;4805930;29;98561;-73
2023/07/17 03:49:30;;;;;;;19.25;17.50;;;;;;;22.30;65.16;100293.59;4793046;29;96862;-73
2023/07/17 03:51:57;;;;;;;18.65;17.35;;;;;;;22.42;64.86;100286.38;4803809;29;96871;-72
2023/07/17 03:54:23;;;;;;;19.00;17.50;;;;;;;22.52;64.82;100291.81;4801872;29;100517;-73
2023/07/17 03:56:52;;;;;;;19.02;17.25;;;;;;;22.54;64.95;100290.69;4786678;29;100889;-73
2023/07/17 03:59:24;;;;;;;20.10;18.30;;;;;;;22.59;65.10;100291.13;4799462;29;96851;-73
2023/07/17 04:01:51;;;;;;;20.65;18.70;;;;;;;22.59;65.24;100291.13;4796579;29;96921;-72
2023/07/17 04:04:17;;;;;;;19.33;17.45;;;;;;;22.57;65.43;100293.13;4791384;29;100672;-73
2023/07/17 04:06:43;;;;;;;20.25;18.38;;;;;;;22.63;64.86;100288.19;4797579;29;100190;-73
2023/07/17 04:09:09;;;;;;;21.13;19.42;;;;;;;22.71;64.92;100285.72;4789901;29;97215;-73
2023/07/17 04:11:35;;;;;;;21.48;19.67;;;;;;;22.69;65.30;100283.19;4810717;29;96872;-73
2023/07/17 04:14:00;;;;;;;20.23;18.52;;;;;;;22.71;65.48;100288.41;4802481;29;100561;-73
2023/07/17 04:16:27;;;;;;;21.98;18.42;;;;;;;22.73;65.54;100270.41;4795494;29;99323;-73
2023/07/17 04:18:54;;;;;;;23.88;20.40;;;;;;;22.77;65.47;100269.16;4799528;29;96707;-73
2023/07/17 04:21:20;;;;;;;26.58;20.20;;;;;;;22.80;65.44;100267.03;4809948;29;96874;-73
2023/07/17 04:23:50;;;;;;;20.77;18.98;;;;;;;22.80;65.21;100253.66;4783090;29;100125;-73
2023/07/17 04:26:18;;;;;;;20.00;17.95;;;;;;;22.84;64.43;100256.94;4779725;29;99678;-73
2023/07/17 04:28:45;;;;;;;21.45;19.80;;;;;;;23.02;63.84;100262.56;4796069;29;97191;-73
2023/07/17 04:31:10;;;;;;;20.48;18.70;;;;;;;23.14;63.57;100268.69;4791988;29;97021;-73
2023/07/17 04:33:36;;;;;;;21.45;19.45;;;;;;;23.18;63.71;100270.94;4803296;29;100448;-73
2023/07/17 04:36:07;;;;;;;25.70;19.25;;;;;;;23.23;63.70;100275.91;4789470;29;100263;-73
2023/07/17 04:38:32;;;;;;;20.80;18.92;;;;;;;23.42;63.22;100284.00;4786536;29;96773;-73
2023/07/17 04:40:58;;;;;;;21.15;18.90;;;;;;;23.60;62.58;100284.19;4798656;29;97901;-73
2023/07/17 04:43:24;;;;;;;20.17;18.48;;;;;;;23.66;62.25;100293.53;4806020;29;99112;-73
2023/07/17 04:45:49;;;;;;;25.10;18.70;;;;;;;23.79;61.98;100295.97;4786855;29;100082;-73
2023/07/17 04:48:19;;;;;;;22.15;20.17;;;;;;;23.67;62.42;100298.72;4792979;29;98231;-73
2023/07/17 04:50:45;;;;;;;21.48;19.45;;;;;;;23.62;62.40;100301.00;4803481;29;97414;-73
2023/07/17 04:53:11;;;;;;;20.80;19.20;;;;;;;23.85;62.23;100314.19;4809248;29;100248;-73
2023/07/17 04:55:37;;;;;;;21.25;19.30;;;;;;;24.13;61.43;100318.75;4803630;29;98765;-73
2023/07/17 04:58:03;;;;;;;21.38;19.58;;;;;;;24.07;61.71;100321.16;4807295;29;96929;-73
2023/07/17 05:00:29;;;;;;;20.05;18.65;;;;;;;23.80;62.27;100332.53;4811806;29;96874;-73
2023/07/17 05:02:56;;;;;;;21.20;19.55;;;;;;;23.73;62.41;100338.41;4829746;29;100041;-73
2023/07/17 05:05:22;;;;;;;19.75;18.33;;;;;;;23.95;62.09;100336.50;4813075;29;98342;-73
2023/07/17 05:07:49;;;;;;;21.83;19.85;;;;;;;24.15;61.51;100335.56;4790145;29;96809;-73
2023/07/17 05:10:18;;;;;;;21.33;19.52;;;;;;;23.76;61.57;100336.44;4813116;29;96893;-73
2023/07/17 05:12:43;;;;;;;20.52;18.85;;;;;;;23.91;61.75;100337.75;4801575;29;100410;-73
2023/07/17 05:15:10;;;;;;;21.67;19.88;;;;;;;23.99;61.49;100340.59;4803534;29;100114;-73
2023/07/17 05:17:36;;;;;;;21.05;18.95;;;;;;;24.01;61.55;100344.00;4819911;29;97073;-73
2023/07/17 05:20:06;;;;;;;22.98;20.95;;;;;;;24.26;61.29;100342.63;4816965;29;96849;-73
2023/07/17 05:22:32;;;;;;;20.88;19.23;;;;;;;24.60;60.39;100336.84;4819496;29;100710;-74
2023/07/17 05:25:00;;;;;;;20.58;18.98;;;;;;;25.08;59.15;100342.16;4820384;29;100396;-81
2023/07/17 05:27:25;;;;;;;21.38;19.60;;;;;;;25.35;58.53;100335.16;4820437;29;96797;-81
2023/07/17 05:29:52;;;;;;;21.60;19.83;;;;;;;25.65;57.78;100338.56;4803929;29;96954;-81
2023/07/17 05:32:17;;;;;;;20.80;19.10;;;;;;;25.66;57.38;100333.06;4820823;29;98694;-81
2023/07/17 05:34:43;;;;;;;22.15;19.98;;;;;;;25.89;56.71;100330.84;4807518;29;99689;-81
2023/07/17 05:37:09;;;;;;;21.40;19.60;;;;;;;25.87;56.62;100324.75;4828821;29;97777;-81
2023/07/17 05:39:34;;;;;;;21.40;19.52;;;;;;;26.32;55.95;100331.94;4819135;29;96965;-81
2023/07/17 05:42:00;;;;;;;21.10;19.52;;;;;;;26.57;54.90;100326.81;4803531;29;100466;-81
2023/07/17 05:44:26;;;;;;;21.20;19.13;;;;;;;27.03;53.86;100328.34;4818614;29;99991;-81
2023/07/17 05:46:51;;;;;;;21.00;19.25;;;;;;;27.52;52.76;100320.56;4820347;29;96850;-81
2023/07/17 05:49:16;;;;;;;20.30;18.55;;;;;;;28.07;51.86;100321.94;4803865;29;96972;-81
2023/07/17 05:51:44;;;;;;;19.75;18.50;;;;;;;28.59;50.69;100318.13;4803101;29;100561;-81
2023/07/17 05:54:10;;;;;;;22.13;20.40;;;;;;;29.26;49.24;100310.59;4820758;29;97756;-81
2023/07/17 05:56:35;;;;;;;20.05;18.55;;;;;;;30.07;47.34;100316.69;4802569;29;96689;-81
2023/07/17 05:59:01;;;;;;;19.58;18.23;;;;;;;30.97;45.45;100307.03;4804579;29;96887;-81
2023/07/17 06:01:28;;;;;;;19.23;17.92;;;;;;;32.22;42.93;100317.84;4806023;29;100790;-81
2023/07/17 06:03:54;;;;;;;21.08;19.17;;;;;;;33.42;40.71;100300.59;4801658;29;98711;-81
2023/07/17 06:06:19;;;;;;;20.15;18.65;;;;;;;32.56;41.87;100294.59;4802171;29;96872;-81
2023/07/17 06:08:45;;;;;;;20.50;18.80;;;;;;;34.07;38.89;100290.22;4839457;29;97197;-81
2023/07/17 06:11:10;;;;;;;21.13;19.48;;;;;;;35.44;37.11;100285.09;4815221;29;98906;-81
2023/07/17 06:13:36;;;;;;;19.58;18.17;;;;;;;36.83;35.15;100280.63;4827695;29;98793;-81
2023/07/17 06:16:02;;;;;;;19.15;17.75;;;;;;;37.97;33.29;100276.38;4820577;29;97272;-82
2023/07/17 06:18:28;;;;;;;20.40;18.30;;;;;;;38.66;32.62;100279.50;4826066;29;97003;-81
2023/07/17 06:20:54;;;;;;;20.27;18.90;;;;;;;39.12;31.36;100277.81;4809089;29;98615;-81
2023/07/17 06:23:19;;;;;;;19.27;17.98;;;;;;;38.82;31.29;100264.22;4820035;29;98608;-82
2023/07/17 06:25:45;;;;;;;19.65;18.13;;;;;;;40.22;29.11;100267.66;4811812;29;97062;-82
2023/07/17 06:28:11;;;;;;;19.85;18.33;;;;;;;40.17;28.68;100272.19;4811433;29;96867;-82
2023/07/17 06:30:36;;;;;;;19.83;18.33;;;;;;;38.89;29.70;100277.84;4819329;29;98988;-82
2023/07/17 06:33:02;;;;;;;19.92;18.42;;;;;;;35.34;33.42;100280.09;4819800;29;98840;-81
2023/07/17 06:35:28;;;;;;;19.38;17.98;;;;;;;34.41;34.70;100272.88;4819682;29;97233;-82
2023/07/17 06:37:53;;;;;;;19.63;18.17;;;;;;;34.47;34.85;100269.31;4819669;29;96893;-82
2023/07/17 06:40:19;;;;;;;19.63;18.00;;;;;;;35.62;33.61;100270.78;4819327;29;98649;-82
2023/07/17 06:42:44;;;;;;;18.95;17.63;;;;;;;36.82;31.57;100273.50;4819174;29;98823;-81
2023/07/17 06:45:10;;;;;;;19.48;17.98;;;;;;;38.12;29.93;100256.75;4812036;29;96810;-81
2023/07/17 06:47:35;;;;;;;18.77;17.38;;;;;;;38.87;29.23;100256.16;4819102;29;96930;-81
2023/07/17 06:50:01;;;;;;;18.88;17.58;;;;;;;39.97;27.98;100270.78;4819678;29;98888;-82
2023/07/17 06:52:26;;;;;;;18.65;17.45;;;;;;;40.92;26.56;100265.44;4817213;29;98311;-82
2023/07/17 06:54:52;;;;;;;18.95;17.55;;;;;;;41.15;26.02;100256.97;4819724;29;96702;-82
2023/07/17 06:57:17;;;;;;;18.98;17.45;;;;;;;41.21;25.42;100255.13;4819698;29;97292;-82
2023/07/17 06:59:43;;;;;;;18.90;17.17;;;;;;;40.73;26.12;100256.66;4816597;29;98831;-82
2023/07/17 07:02:09;;;;;;;19.13;17.63;;;;;;;41.21;26.13;100257.88;4813512;29;98817;-82
2023/07/17 07:04:34;;;;;;;19.60;18.05;;;;;;;40.37;26.92;100253.31;4807321;29;96817;-82
2023/07/17 07:07:00;;;;;;;19.20;17.65;;;;;;;38.63;29.56;100258.06;4808265;29;96965;-82
2023/07/17 07:09:25;;;;;;;19.63;18.15;;;;;;;36.97;31.92;100263.03;4809123;29;98866;-82
2023/07/17 07:11:51;;;;;;;19.58;18.27;;;;;;;37.78;30.61;100252.81;4817870;29;98493;-82
2023/07/17 07:14:16;;;;;;;19.45;17.75;;;;;;;36.31;32.29;100247.25;4813077;29;96847;-81
2023/07/17 07:16:42;;;;;;;19.83;18.35;;;;;;;36.16;31.99;100245.69;4815413;29;97325;-82
2023/07/17 07:19:07;;;;;;;21.02;19.27;;;;;;;35.08;33.77;100264.66;4810600;29;98840;-82
2023/07/17 07:21:33;;;;;;;20.52;19.05;;;;;;;33.94;35.93;100262.94;4817462;29;98512;-81
2023/07/17 07:23:59;;;;;;;20.83;19.02;;;;;;;33.25;37.32;100261.19;4805843;29;96885;-81
2023/07/17 07:26:24;;;;;;;20.00;18.40;;;;;;;32.77;37.67;100259.22;4811473;29;97614;-82
2023/07/17 07:28:50;;;;;;;20.67;18.98;;;;;;;32.47;37.83;100258.56;4812983;29;99188;-83
2023/07/17 07:31:15;;;;;;;20.63;18.75;;;;;;;33.04;37.23;100254.81;4816910;29;97813;-82
2023/07/17 07:33:41;;;;;;;21.42;19.73;;;;;;;32.52;37.42;100263.41;4815250;29;96872;-82
2023/07/17 07:36:07;;;;;;;20.60;19.10;;;;;;;32.10;37.98;100276.78;4815170;29;98231;-82
2023/07/17 07:38:32;;;;;;;19.80;18.20;;;;;;;31.57;38.66;100274.31;4812100;29;99055;-82
2023/07/17 07:40:58;;;;;;;20.75;18.98;;;;;;;31.04;40.12;100284.44;4810539;29;98901;-82
2023/07/17 07:43:23;;;;;;;20.85;19.05;;;;;;;30.36;41.35;100293.50;4825662;29;97275;-79
2023/07/17 07:45:49;;;;;;;20.52;18.83;;;;;;;30.54;41.70;100304.84;4814721;29;97037;-80
2023/07/17 07:48:14;;;;;;;20.52;18.80;;;;;;;29.95;43.25;100299.16;4810719;29;98741;-80
2023/07/17 07:50:40;;;;;;;20.50;18.58;;;;;;;29.91;43.02;100305.97;4804731;29;98824;-79
2023/07/17 07:53:05;;;;;;;20.35;18.58;;;;;;;29.54;44.42;100311.00;4808195;29;97335;-79
2023/07/17 07:55:31;;;;;;;20.20;18.55;;;;;;;29.62;44.49;100317.41;4803669;29;96829;-79
2023/07/17 07:57:56;;;;;;;20.40;18.80;;;;;;;29.31;45.05;100329.00;4813718;29;98812;-80
2023/07/17 08:00:22;;;;;;;20.50;19.00;;;;;;;29.23;45.03;100334.44;4818220;29;98439;-80
2023/07/17 08:02:47;;;;;;;19.63;18.23;;;;;;;29.24;45.76;100333.44;4804788;29;97143;-82
2023/07/17 08:05:13;;;;;;;19.85;18.20;;;;;;;28.64;47.55;100337.38;4823969;29;97140;-81
2023/07/17 08:07:39;;;;;;;21.35;19.77;;;;;;;28.50;47.69;100346.13;4818851;29;99259;-84
2023/07/17 08:10:04;;;;;;;22.13;20.38;;;;;;;28.85;47.06;100343.09;4816234;29;98398;-83
2023/07/17 08:12:31;;;;;;;21.75;19.55;;;;;;;28.16;48.17;100339.84;4816476;29;97526;-79
2023/07/17 08:14:56;;;;;;;20.55;18.92;;;;;;;27.85;48.99;100336.03;4820016;29;97018;-75
2023/07/17 08:17:22;;;;;;;20.67;19.08;;;;;;;27.91;49.31;100330.00;4813425;29;98713;-87
2023/07/17 08:19:48;;;;;;;20.38;18.98;;;;;;;28.06;49.27;100339.13;4822452;29;98276;-87
2023/07/17 08:22:13;;;;;;;20.60;19.20;;;;;;;28.10;49.22;100332.41;4817388;29;96652;-86
2023/07/17 08:24:40;;;;;;;21.52;19.98;;;;;;;27.76;50.52;100335.13;4815732;29;97642;-87
2023/07/17 08:27:06;;;;;;;20.35;18.83;;;;;;;27.96;50.33;100336.59;4818496;29;98135;-86
2023/07/17 08:29:31;;;;;;;19.92;18.50;;;;;;;28.07;50.08;100335.44;4820335;29;98761;-86
2023/07/17 08:31:57;;;;;;;20.08;18.65;;;;;;;27.90;50.75;100345.34;4812317;29;97363;-74
2023/07/17 08:34:23;;;;;;;20.70;19.00;;;;;;;27.48;51.96;100339.91;4820440;29;97106;-75
2023/07/17 08:36:49;;;;;;;20.67;18.98;;;;;;;27.18;53.35;100328.63;4807802;29;98714;-73
2023/07/17 08:39:14;;;;;;;20.52;19.02;;;;;;;27.06;53.78;100336.09;4813170;29;97624;-73
2023/07/17 08:41:45;;;;;;;21.00;19.25;;;;;;;26.64;55.11;100344.88;4824129;29;96926;-72
2023/07/17 08:44:10;;;;;;;19.85;18.45;;;;;;;26.77;54.68;100347.19;4814814;29;96807;-76
2023/07/17 08:46:37;;;;;;;20.02;18.50;;;;;;;26.76;55.06;100342.81;4808187;29;99232;-80
2023/07/17 08:49:02;;;;;;;20.30;18.88;;;;;;;27.34;53.72;100345.88;4818086;29;98520;-73
2023/07/17 08:51:28;;;;;;;19.88;18.50;;;;;;;27.63;52.35;100345.53;4801671;29;97048;-76
2023/07/17 08:53:55;;;;;;;19.45;18.05;;;;;;;27.91;51.48;100347.00;4798526;29;97010;-76
2023/07/17 08:56:21;;;;;;;19.95;18.45;;;;;;;28.20;51.14;100354.66;4814469;29;98717;-73
2023/07/17 08:58:46;;;;;;;20.00;18.65;;;;;;;28.56;50.59;100348.16;4805982;29;98248;-74
2023/07/17 09:01:12;;;;;;;20.90;19.33;;;;;;;28.04;51.54;100351.91;4818385;29;97562;-74
2023/07/17 09:03:38;;;;;;;20.13;18.45;;;;;;;28.60;50.39;100342.25;4814234;29;97212;-75
2023/07/17 09:06:04;;;;;;;20.67;18.92;;;;;;;29.13;49.09;100344.63;4803457;29;98811;-75
2023/07/17 09:08:31;;;;;;;20.63;18.90;;;;;;;29.18;47.63;100348.50;4814588;29;98312;-74
2023/07/17 09:11:03;;;;;;;20.13;18.75;;;;;;;28.76;48.24;100344.09;4816083;29;97511;-78
2023/07/17 09:13:39;;;;;;;20.80;18.98;;;;;;;28.24;48.61;100343.53;4816732;29;97284;-74
2023/07/17 09:16:19;;;;;;;20.00;18.55;;;;;;;28.04;48.85;100333.03;4814044;29;99006;-74
2023/07/17 09:18:45;;;;;;;20.50;18.90;;;;;;;28.05;47.81;100336.59;4808901;29;98807;-74
2023/07/17 09:21:15;;;;;;;19.85;18.55;;;;;;;28.68;46.04;100330.59;4815982;29;98260;-75
2023/07/17 09:23:46;;;;;;;21.25;19.42;;;;;;;28.91;46.14;100328.06;4817385;29;97528;-74
2023/07/17 09:26:13;;;;;;;20.95;19.23;;;;;;;28.77;45.41;100326.91;4822282;29;99166;-74
2023/07/17 09:28:49;;;;;;;20.23;18.85;;;;;;;28.65;44.62;100328.25;4822811;29;98668;-74
2023/07/17 09:31:28;;;;;;;20.73;18.75;;;;;;;28.50;44.96;100332.63;4818105;29;96659;-74
2023/07/17 09:33:55;;;;;;;19.83;18.42;;;;;;;29.41;44.61;100329.69;4816683;29;97339;-74
2023/07/17 09:36:21;;;;;;;20.55;18.95;;;;;;;30.20;43.57;100319.66;4819062;29;98721;-74
2023/07/17 09:38:54;;;;;;;19.85;18.25;;;;;;;30.41;41.58;100308.19;4817705;29;99041;-74
2023/07/17 09:41:25;;;;;;;20.27;18.70;;;;;;;30.45;41.94;100309.47;4812722;29;98210;-75
2023/07/17 09:43:57;;;;;;;20.42;18.83;;;;;;;30.13;39.66;100313.25;4808258;29;96891;-74
2023/07/17 09:46:25;;;;;;;19.77;18.38;;;;;;;29.94;40.54;100297.50;4818809;29;98729;-78
2023/07/17 09:48:52;;;;;;;20.60;19.08;;;;;;;29.76;41.54;100295.06;4818304;29;98492;-78
2023/07/17 09:51:18;;;;;;;19.75;18.20;;;;;;;30.35;40.84;100291.81;4798285;29;97278;-78
2023/07/17 09:53:45;;;;;;;21.00;19.13;;;;;;;30.68;41.09;100292.38;4814945;29;96919;-78
2023/07/17 09:56:14;;;;;;;20.70;18.92;;;;;;;30.25;39.98;100289.34;4814194;29;98759;-78
2023/07/17 09:58:46;;;;;;;20.42;18.92;;;;;;;30.27;39.90;100292.72;4797321;29;98316;-79
2023/07/17 10:01:17;;;;;;;20.10;18.70;;;;;;;30.11;39.76;100299.06;4812769;29;98481;-78
2023/07/17 10:03:47;;;;;;;19.00;17.67;;;;;;;30.41;39.57;100296.50;4815347;29;97085;-79
2023/07/17 10:06:13;;;;;;;;;;;;;;;30.39;40.00;100293.97;4823512;29;98830;-78
2023/07/17 10:08:40;;;;;;;19.58;18.33;;;;;;;30.23;39.22;100292.25;4827246;29;97697;-79
2023/07/17 10:11:06;;;;;;;20.50;18.73;;;;;;;30.21;40.11;100288.03;4822689;29;97416;-79
2023/07/17 10:13:31;;;;;;;20.05;18.58;;;;;;;30.29;39.70;100268.19;4816393;29;97182;-80
2023/07/17 10:15:57;;;;;;;19.63;18.15;;;;;;;29.93;39.41;100274.16;4801913;29;98680;-78
2023/07/17 10:18:24;;;;;;;19.08;17.77;;;;;;;30.17;39.42;100275.88;4817673;29;98258;-75
2023/07/17 10:20:54;;;;;;;19.13;17.90;;;;;;;30.18;38.95;100272.13;4818210;29;97072;-80
2023/07/17 10:23:26;;;;;;;20.20;18.63;;;;;;;30.15;39.72;100273.31;4815883;29;97503;-81
2023/07/17 10:26:04;;;;;;;19.83;18.50;;;;;;;30.38;39.98;100276.06;4817227;29;99983;-81
2023/07/17 10:28:31;;;;;;;20.25;18.55;;;;;;;30.53;39.50;100284.22;4798071;29;98945;-81
2023/07/17 10:31:04;;;;;;;19.00;17.40;;;;;;;30.41;38.55;100277.56;4818767;29;97116;-82
2023/07/17 10:33:35;;;;;;;19.70;18.27;;;;;;;30.37;39.05;100277.09;4786457;29;97437;-82
2023/07/17 10:36:01;;;;;;;19.48;18.08;;;;;;;30.43;39.90;100272.81;4818600;29;98849;-80
2023/07/17 10:38:31;;;;;;;19.38;17.98;;;;;;;30.75;39.65;100277.06;4823456;29;98707;-81
2023/07/17 10:41:26;;;;;;;20.50;18.85;;;;;;;30.81;39.35;100279.06;4812733;29;97018;-82
2023/07/17 10:43:54;;;;;;;19.52;18.13;;;;;;;30.87;39.40;100280.22;4817417;29;97361;-81
2023/07/17 10:46:19;;;;;;;19.00;17.52;;;;;;;30.87;39.60;100282.91;4817551;29;98698;-81
2023/07/17 10:48:45;;;;;;;19.63;18.35;;;;;;;30.61;39.52;100272.47;4817655;29;98942;-82
2023/07/17 10:51:11;;;;;;;18.73;17.35;;;;;;;30.57;39.83;100258.44;4820934;29;97204;-81
2023/07/17 10:53:36;;;;;;;18.60;16.92;;;;;;;30.69;39.59;100269.69;4818374;29;96877;-82
2023/07/17 10:56:02;;;;;;;21.00;19.05;;;;;;;30.48;39.57;100272.25;4828803;29;99031;-83
2023/07/17 10:58:27;;;;;;;19.50;18.30;;;;;;;30.72;39.52;100272.03;4825588;29;98538;-80
2023/07/17 11:00:55;;;;;;;19.27;17.95;;;;;;;30.86;39.66;100257.69;4821631;29;97229;-82
2023/07/17 11:03:22;;;;;;;19.23;17.95;;;;;;;30.78;39.02;100254.19;4818639;29;96876;-82
2023/07/17 11:05:48;;;;;;;19.27;18.05;;;;;;;30.78;39.30;100241.50;4811552;29;98751;-82